createdAt,value
2018-09-15T00:03:11.752Z,47.60
2018-09-15T00:08:06.900Z,47.10
2018-09-15T00:10:34.556Z,47.00
2018-09-15T00:13:02.110Z,46.60
2018-09-15T00:15:29.657Z,47.90
2018-09-15T00:17:58.363Z,47.70
2018-09-15T00:20:25.980Z,48.50
2018-09-15T00:22:53.584Z,48.50
2018-09-15T00:25:21.184Z,47.60
2018-09-15T00:27:48.735Z,48.10
2018-09-15T00:30:16.391Z,48.50
2018-09-15T00:32:43.915Z,48.60
2018-09-15T00:35:11.544Z,47.60
2018-09-15T00:37:39.067Z,48.20
2018-09-15T00:40:06.660Z,48.10
2018-09-15T00:42:34.213Z,48.20
2018-09-15T00:45:01.890Z,48.20
2018-09-15T00:47:29.503Z,48.20
2018-09-15T00:49:57.043Z,48.30
2018-09-15T00:52:24.686Z,48.50
2018-09-15T00:54:52.173Z,48.60
2018-09-15T00:57:19.781Z,48.50
2018-09-15T00:59:47.889Z,48.20
2018-09-15T01:02:15.545Z,48.90
2018-09-15T01:04:43.310Z,49.00
2018-09-15T01:07:10.768Z,48.90
2018-09-15T01:09:38.234Z,48.50
2018-09-15T01:12:05.767Z,48.80
2018-09-15T01:14:33.233Z,49.10
2018-09-15T01:17:00.709Z,48.70
2018-09-15T01:19:28.313Z,49.70
2018-09-15T01:21:55.919Z,49.00
2018-09-15T01:24:23.411Z,49.50
2018-09-15T01:26:50.909Z,49.40
2018-09-15T01:29:18.491Z,49.20
2018-09-15T01:34:13.403Z,49.60
2018-09-15T01:36:40.973Z,49.90
2018-09-15T01:39:09.492Z,49.70
2018-09-15T01:41:37.553Z,49.90
2018-09-15T01:44:05.040Z,49.80
2018-09-15T01:46:32.469Z,50.20
2018-09-15T01:48:59.947Z,49.60
2018-09-15T01:51:28.121Z,49.50
2018-09-15T01:53:55.843Z,50.00
2018-09-15T01:56:23.477Z,50.80
2018-09-15T01:58:51.064Z,50.50
2018-09-15T02:01:18.569Z,51.10
2018-09-15T02:03:46.050Z,51.10
2018-09-15T02:06:13.541Z,51.30
2018-09-15T02:08:41.104Z,51.10
2018-09-15T02:11:08.596Z,51.60
2018-09-15T02:13:36.112Z,52.00
2018-09-15T02:16:03.612Z,52.50
2018-09-15T02:18:31.088Z,52.50
2018-09-15T02:20:58.632Z,51.80
2018-09-15T02:23:26.113Z,51.50
2018-09-15T02:25:53.575Z,51.50
2018-09-15T02:28:21.241Z,51.70
2018-09-15T02:30:49.378Z,52.20
2018-09-15T02:33:17.422Z,51.00
2018-09-15T02:35:45.665Z,50.90
2018-09-15T02:38:14.437Z,51.20
2018-09-15T02:43:09.441Z,51.60
2018-09-15T02:45:36.976Z,52.00
2018-09-15T02:48:04.525Z,52.70
2018-09-15T02:50:32.902Z,52.00
2018-09-15T02:53:00.454Z,52.00
2018-09-15T02:55:27.965Z,52.20
2018-09-15T02:57:55.517Z,52.30
2018-09-15T03:00:23.021Z,52.20
2018-09-15T03:02:50.692Z,53.40
2018-09-15T03:05:18.188Z,52.40
2018-09-15T03:07:45.687Z,53.20
2018-09-15T03:10:13.195Z,52.40
2018-09-15T03:12:41.136Z,52.60
2018-09-15T03:15:08.740Z,53.00
2018-09-15T03:17:36.292Z,53.60
2018-09-15T03:20:04.766Z,53.20
2018-09-15T03:22:32.383Z,53.30
2018-09-15T03:27:27.912Z,53.30
2018-09-15T03:29:55.404Z,53.80
2018-09-15T03:32:24.052Z,53.90
2018-09-15T03:34:51.549Z,53.90
2018-09-15T03:37:19.185Z,53.90
2018-09-15T03:39:46.681Z,53.90
2018-09-15T03:42:14.126Z,53.90
2018-09-15T03:44:41.584Z,53.90
2018-09-15T03:47:09.148Z,54.30
2018-09-15T03:49:36.615Z,54.60
2018-09-15T03:52:04.148Z,55.00
2018-09-15T03:54:31.619Z,54.90
2018-09-15T03:56:59.256Z,54.50
2018-09-15T03:59:26.853Z,54.50
2018-09-15T04:01:54.345Z,55.10
2018-09-15T04:06:49.345Z,54.80
2018-09-15T04:09:16.822Z,55.30
2018-09-15T04:11:44.304Z,55.20
2018-09-15T04:14:11.836Z,54.70
2018-09-15T04:16:39.284Z,54.70
2018-09-15T04:26:30.622Z,54.00
2018-09-15T04:31:25.662Z,54.00
2018-09-15T04:33:53.325Z,54.10
2018-09-15T04:36:20.818Z,53.90
2018-09-15T04:38:48.370Z,54.00
2018-09-15T04:41:15.977Z,54.50
2018-09-15T04:43:44.156Z,53.40
2018-09-15T04:48:39.096Z,54.00
2018-09-15T04:51:06.888Z,54.20
2018-09-15T04:53:34.359Z,54.20
2018-09-15T04:58:30.300Z,54.70
2018-09-15T05:00:57.868Z,54.80
2018-09-15T05:03:25.634Z,55.20
2018-09-15T05:05:53.268Z,55.20
2018-09-15T05:08:23.244Z,56.20
2018-09-15T05:10:50.735Z,56.10
2018-09-15T05:13:18.807Z,57.20
2018-09-15T05:15:46.444Z,55.50
2018-09-15T05:18:13.958Z,55.10
2018-09-15T05:20:42.182Z,55.10
2018-09-15T05:23:09.970Z,55.30
2018-09-15T05:28:05.214Z,55.40
2018-09-15T05:30:33.407Z,54.20
2018-09-15T05:33:01.220Z,54.20
2018-09-15T05:35:28.902Z,54.60
2018-09-15T05:37:56.363Z,55.10
2018-09-15T05:40:23.985Z,55.10
2018-09-15T05:42:51.533Z,55.10
2018-09-15T05:45:18.990Z,55.80
2018-09-15T05:47:46.967Z,54.40
2018-09-15T05:50:14.573Z,54.70
2018-09-15T05:52:42.814Z,54.80
2018-09-15T05:55:10.333Z,54.90
2018-09-15T05:57:37.906Z,55.00
2018-09-15T06:00:05.995Z,54.50
2018-09-15T06:02:33.631Z,54.30
2018-09-15T06:05:01.201Z,55.00
2018-09-15T06:07:29.798Z,54.30
2018-09-15T06:09:57.323Z,54.30
2018-09-15T06:12:24.885Z,54.50
2018-09-15T06:14:52.409Z,54.50
2018-09-15T06:17:20.168Z,54.30
2018-09-15T06:22:15.120Z,54.70
2018-09-15T06:24:42.672Z,54.80
2018-09-15T06:27:10.106Z,55.30
2018-09-15T06:29:37.697Z,55.50
2018-09-15T06:34:33.646Z,55.50
2018-09-15T06:37:01.164Z,55.70
2018-09-15T06:39:28.926Z,55.60
2018-09-15T06:41:56.655Z,56.00
2018-09-15T06:44:24.221Z,55.90
2018-09-15T06:46:52.414Z,55.70
2018-09-15T06:49:19.910Z,55.20
2018-09-15T06:51:47.465Z,56.00
2018-09-15T06:54:15.041Z,54.80
2018-09-15T06:56:42.625Z,55.00
2018-09-15T06:59:10.136Z,55.60
2018-09-15T07:01:39.980Z,53.10
2018-09-15T07:04:09.642Z,52.60
2018-09-15T07:06:37.415Z,52.80
2018-09-15T07:09:07.738Z,52.80
2018-09-15T07:11:35.355Z,52.60
2018-09-15T07:14:03.038Z,52.60
2018-09-15T07:16:31.225Z,52.60
2018-09-15T07:18:58.815Z,52.70
2018-09-15T07:21:26.386Z,52.80
2018-09-15T07:23:54.052Z,52.80
2018-09-15T07:26:21.586Z,51.60
2018-09-15T07:28:49.168Z,50.10
2018-09-15T07:31:16.755Z,50.10
2018-09-15T07:33:44.225Z,50.20
2018-09-15T07:36:11.805Z,49.10
2018-09-15T07:38:39.471Z,47.90
2018-09-15T07:41:06.990Z,48.40
2018-09-15T07:43:34.703Z,47.40
2018-09-15T07:46:02.376Z,46.30
2018-09-15T07:48:29.863Z,47.60
2018-09-15T07:50:57.456Z,46.80
2018-09-15T07:53:25.212Z,45.10
2018-09-15T07:55:52.820Z,45.20
2018-09-15T07:58:20.297Z,44.20
2018-09-15T08:00:47.913Z,44.40
2018-09-15T08:03:15.549Z,43.20
2018-09-15T08:05:43.236Z,43.10
2018-09-15T08:08:10.705Z,43.20
2018-09-15T08:10:38.436Z,42.70
2018-09-15T08:13:06.232Z,43.10
2018-09-15T08:15:33.783Z,42.20
2018-09-15T08:18:01.292Z,42.90
2018-09-15T08:20:28.779Z,43.30
2018-09-15T08:22:56.413Z,41.90
2018-09-15T08:25:24.182Z,41.00
2018-09-15T08:27:51.695Z,40.40
2018-09-15T08:30:19.507Z,37.90
2018-09-15T08:32:48.733Z,36.90
2018-09-15T08:37:45.453Z,37.70
2018-09-15T08:42:42.347Z,35.30
2018-09-15T08:45:10.182Z,35.80
2018-09-15T08:47:38.944Z,36.00
2018-09-15T08:52:34.806Z,35.80
2018-09-15T08:55:04.197Z,35.90
2018-09-15T08:59:59.529Z,32.50
2018-09-15T09:02:27.201Z,34.00
2018-09-15T09:04:55.610Z,32.40
2018-09-15T09:07:23.305Z,31.70
2018-09-15T09:09:50.893Z,30.30
2018-09-15T09:12:18.467Z,32.10
2018-09-15T09:17:13.847Z,32.90
2018-09-15T09:19:41.485Z,33.00
2018-09-15T09:22:09.147Z,33.80
2018-09-15T09:24:36.673Z,32.10
2018-09-15T09:27:04.211Z,28.10
2018-09-15T09:29:31.766Z,26.90
2018-09-15T09:34:27.093Z,29.00
2018-09-15T09:36:54.693Z,26.30
2018-09-15T09:39:22.406Z,26.30
2018-09-15T09:54:49.640Z,28.40
2018-09-15T09:57:17.260Z,29.70
2018-09-15T09:59:44.937Z,27.70
2018-09-15T10:02:13.620Z,26.80
2018-09-15T10:04:41.545Z,28.80
2018-09-15T10:09:38.501Z,27.90
2018-09-15T10:12:06.842Z,29.70
2018-09-15T10:14:34.563Z,29.10
2018-09-15T10:19:37.384Z,26.30
2018-09-15T10:22:04.988Z,26.50
2018-09-15T10:24:32.740Z,27.00
2018-09-15T10:27:01.751Z,28.10
2018-09-15T10:29:29.729Z,27.50
2018-09-15T10:31:57.371Z,28.80
2018-09-15T10:39:20.572Z,28.70
2018-09-15T10:41:48.717Z,28.90
2018-09-15T10:44:17.396Z,29.10
2018-09-15T10:46:45.082Z,29.40
2018-09-15T10:56:36.685Z,35.80
2018-09-15T11:06:26.705Z,41.00
2018-09-15T11:08:55.749Z,43.60
2018-09-15T11:11:23.556Z,48.50
2018-09-15T11:21:13.541Z,52.10
2018-09-15T11:23:41.052Z,44.70
2018-09-15T11:26:08.664Z,39.40
2018-09-15T11:31:03.676Z,43.00
2018-09-15T11:33:31.302Z,39.70
2018-09-15T11:35:58.949Z,43.00
2018-09-15T11:43:22.388Z,37.40
2018-09-15T11:45:50.628Z,36.70
2018-09-15T11:48:18.144Z,41.40
2018-09-15T11:50:45.759Z,43.20
2018-09-15T11:58:08.262Z,46.50
2018-09-15T12:03:06.324Z,39.10
2018-09-15T12:08:01.441Z,45.30
2018-09-15T12:10:28.972Z,46.10
2018-09-15T12:12:56.808Z,55.40
2018-09-15T12:15:24.370Z,46.70
2018-09-15T12:30:09.600Z,57.30
2018-09-15T12:32:37.478Z,68.20
2018-09-15T12:35:05.382Z,60.00
2018-09-15T12:49:50.504Z,64.80
2018-09-15T12:57:15.530Z,30.10
2018-09-15T13:07:10.532Z,48.30
2018-09-15T13:09:39.194Z,40.60
2018-09-15T13:12:07.162Z,30.80
2018-09-15T13:14:34.718Z,46.60
2018-09-15T13:17:02.282Z,30.60
2018-09-15T13:21:57.353Z,31.40
2018-09-15T13:24:24.850Z,31.60
2018-09-15T13:26:52.446Z,38.50
2018-09-15T13:29:20.030Z,32.80
2018-09-15T13:31:47.826Z,32.20
2018-09-15T13:34:15.465Z,32.10
2018-09-15T13:36:43.131Z,31.80
2018-09-15T13:39:11.518Z,32.20
2018-09-15T13:41:39.093Z,32.50
2018-09-15T13:44:06.956Z,31.90
2018-09-15T13:46:34.623Z,31.90
2018-09-15T13:49:02.202Z,31.50
2018-09-15T13:51:29.777Z,31.00
2018-09-15T13:53:57.255Z,30.70
2018-09-15T13:56:24.877Z,30.90
2018-09-15T13:58:52.578Z,31.10
2018-09-15T14:01:20.080Z,31.80
2018-09-15T14:03:47.829Z,32.10
2018-09-15T14:06:15.443Z,33.30
2018-09-15T14:08:43.043Z,33.60
2018-09-15T14:11:10.751Z,33.90
2018-09-15T14:13:38.408Z,33.60
2018-09-15T14:16:06.017Z,33.70
2018-09-15T14:18:33.641Z,33.60
2018-09-15T14:21:01.204Z,33.40
2018-09-15T14:23:28.783Z,32.70
2018-09-15T14:25:56.390Z,33.10
2018-09-15T14:28:23.935Z,32.90
2018-09-15T14:30:51.447Z,32.80
2018-09-15T14:33:18.989Z,33.70
2018-09-15T14:35:46.550Z,33.30
2018-09-15T14:40:41.513Z,33.10
2018-09-15T14:43:09.051Z,33.80
2018-09-15T14:45:36.591Z,34.60
2018-09-15T14:48:04.086Z,34.20
2018-09-15T14:50:32.493Z,34.60
2018-09-15T14:53:01.207Z,35.00
2018-09-15T14:55:32.890Z,35.10
2018-09-15T14:58:00.466Z,35.20
2018-09-15T15:00:33.207Z,35.40
2018-09-15T15:03:03.824Z,35.00
2018-09-15T15:05:31.358Z,34.90
2018-09-15T15:07:59.032Z,35.00
2018-09-15T15:10:26.503Z,34.80
2018-09-15T15:12:53.956Z,35.60
2018-09-15T15:17:49.201Z,36.40
2018-09-15T15:20:16.816Z,36.10
2018-09-15T15:22:44.452Z,35.90
2018-09-15T15:25:12.017Z,35.50
2018-09-15T15:27:39.507Z,35.40
2018-09-15T15:30:07.165Z,35.70
2018-09-15T15:32:35.036Z,35.50
2018-09-15T15:35:03.221Z,35.40
2018-09-15T15:37:31.660Z,35.50
2018-09-15T15:39:59.031Z,36.80
2018-09-15T15:42:26.631Z,36.80
2018-09-15T15:44:54.539Z,37.00
2018-09-15T15:47:23.345Z,36.80
2018-09-15T15:49:50.852Z,37.00
2018-09-15T15:52:20.416Z,37.50
2018-09-15T15:54:49.190Z,37.60
2018-09-15T15:57:16.858Z,37.90
2018-09-15T15:59:44.959Z,37.90
2018-09-15T16:02:12.506Z,38.00
2018-09-15T16:07:08.232Z,37.80
2018-09-15T16:09:45.810Z,38.20
2018-09-15T16:17:09.837Z,38.10
2018-09-15T16:19:38.618Z,38.10
2018-09-15T16:22:08.053Z,38.50
2018-09-15T16:24:36.109Z,38.30
2018-09-15T16:27:04.458Z,38.70
2018-09-15T16:29:32.113Z,38.60
2018-09-15T16:31:59.763Z,38.50
2018-09-15T16:34:28.654Z,38.40
2018-09-15T16:36:56.528Z,38.30
2018-09-15T16:41:51.537Z,39.10
2018-09-15T16:44:19.123Z,39.10
2018-09-15T16:46:46.791Z,39.00
2018-09-15T16:49:14.749Z,39.10
2018-09-15T16:51:43.551Z,39.10
2018-09-15T16:54:12.075Z,39.30
2018-09-15T16:56:39.636Z,39.40
2018-09-15T17:01:37.721Z,39.20
2018-09-15T17:04:05.967Z,39.30
2018-09-15T17:06:36.999Z,39.70
2018-09-15T17:09:07.715Z,39.60
2018-09-15T17:11:36.356Z,39.80
2018-09-15T17:14:03.865Z,39.60
2018-09-15T17:16:31.463Z,40.10
2018-09-15T17:18:59.492Z,40.50
2018-09-15T17:26:22.835Z,40.60
2018-09-15T17:28:50.803Z,41.20
2018-09-15T17:31:19.918Z,41.20
2018-09-15T17:38:45.416Z,41.50
2018-09-15T17:41:13.538Z,42.20
2018-09-15T17:43:41.322Z,42.80
2018-09-15T17:46:08.945Z,42.80
2018-09-15T17:48:37.158Z,43.10
2018-09-15T17:51:05.032Z,43.20
2018-09-15T17:53:32.567Z,44.20
2018-09-15T17:56:00.137Z,43.60
2018-09-15T17:58:27.866Z,44.00
2018-09-15T18:00:55.521Z,44.30
2018-09-15T18:03:23.531Z,44.40
2018-09-15T18:05:51.125Z,45.10
2018-09-15T18:08:18.631Z,44.40
2018-09-15T18:10:46.782Z,45.10
2018-09-15T18:13:14.351Z,45.10
2018-09-15T18:15:41.907Z,45.10
2018-09-15T18:18:09.540Z,45.00
2018-09-15T18:20:37.081Z,45.50
2018-09-15T18:23:05.305Z,45.80
2018-09-15T18:25:33.021Z,45.60
2018-09-15T18:28:02.023Z,46.50
2018-09-15T18:30:30.200Z,46.10
2018-09-15T18:32:57.818Z,46.80
2018-09-15T18:37:52.882Z,46.70
2018-09-15T18:40:20.532Z,47.50
2018-09-15T18:42:48.673Z,46.90
2018-09-15T18:45:16.258Z,47.00
2018-09-15T18:47:44.618Z,46.00
2018-09-15T18:50:12.367Z,46.30
2018-09-15T18:52:39.909Z,46.60
2018-09-15T18:55:07.768Z,47.10
2018-09-15T18:57:35.354Z,47.30
2018-09-15T19:00:03.580Z,47.30
2018-09-15T19:02:31.295Z,47.30
2018-09-15T19:04:59.017Z,47.70
2018-09-15T19:07:26.725Z,47.90
2018-09-15T19:09:54.642Z,47.90
2018-09-15T19:12:37.707Z,48.30
2018-09-15T19:15:05.466Z,48.10
2018-09-15T19:17:32.967Z,48.50
2018-09-15T19:20:00.557Z,48.80
2018-09-15T19:22:28.665Z,48.30
2018-09-15T19:29:58.058Z,47.90
2018-09-15T19:32:25.700Z,48.10
2018-09-15T19:34:53.145Z,48.60
2018-09-15T19:37:22.888Z,48.60
2018-09-15T19:39:52.711Z,48.60
2018-09-15T19:42:22.071Z,48.50
2018-09-15T19:44:52.997Z,48.40
2018-09-15T19:49:49.372Z,49.30
2018-09-15T19:52:17.432Z,49.20
2018-09-15T19:54:49.351Z,49.50
2018-09-15T19:57:20.288Z,49.50
2018-09-15T19:59:47.954Z,49.60
2018-09-15T20:04:48.928Z,49.50
2018-09-15T20:07:21.288Z,49.50
2018-09-15T20:09:49.155Z,49.60
2018-09-15T20:12:19.008Z,49.40
2018-09-15T20:14:47.479Z,50.00
2018-09-15T20:17:16.012Z,50.00
2018-09-15T20:19:44.986Z,50.10
2018-09-15T20:22:15.751Z,49.80
2018-09-15T20:24:44.808Z,49.50
2018-09-15T20:27:14.004Z,49.30
2018-09-15T20:32:09.388Z,49.50
2018-09-15T20:34:42.014Z,49.50
2018-09-15T20:39:38.852Z,50.40
2018-09-15T20:47:05.515Z,51.10
2018-09-15T20:49:33.213Z,50.60
2018-09-15T20:52:00.847Z,50.40
2018-09-15T20:54:28.569Z,50.30
2018-09-15T20:56:56.400Z,50.90
2018-09-15T20:59:23.894Z,50.90
2018-09-15T21:01:52.440Z,50.90
2018-09-15T21:04:19.981Z,50.60
2018-09-15T21:06:47.984Z,50.70
2018-09-15T21:09:15.600Z,50.60
2018-09-15T21:11:43.375Z,51.00
2018-09-15T21:14:11.464Z,51.00
2018-09-15T21:19:06.862Z,51.60
2018-09-15T21:21:34.415Z,51.60
2018-09-15T21:24:02.272Z,51.60
2018-09-15T21:26:29.752Z,51.60
2018-09-15T21:28:57.374Z,51.50
2018-09-15T21:31:25.372Z,51.60
2018-09-15T21:33:52.977Z,51.20
2018-09-15T21:36:20.668Z,51.70
2018-09-15T21:38:48.255Z,51.40
2018-09-15T21:41:16.063Z,51.50
2018-09-15T21:43:43.593Z,51.30
2018-09-15T21:46:11.550Z,52.90
2018-09-15T21:48:39.607Z,51.20
2018-09-15T21:51:07.251Z,51.10
2018-09-15T21:53:35.113Z,51.70
2018-09-15T21:56:02.621Z,51.60
2018-09-15T21:58:30.248Z,52.20
2018-09-15T22:01:02.543Z,51.50
2018-09-15T22:03:30.605Z,51.60
2018-09-15T22:05:59.444Z,51.70
2018-09-15T22:08:27.656Z,52.10
2018-09-15T22:10:55.281Z,52.70
2018-09-15T22:13:22.777Z,52.90
2018-09-15T22:15:50.393Z,52.60
2018-09-15T22:18:18.003Z,52.80
2018-09-15T22:20:45.496Z,52.70
2018-09-15T22:23:13.041Z,53.00
2018-09-15T22:25:40.883Z,53.20
2018-09-15T22:28:08.443Z,52.80
2018-09-15T22:30:36.202Z,53.10
2018-09-15T22:33:03.978Z,53.30
2018-09-15T22:37:59.109Z,52.00
2018-09-15T22:40:26.721Z,53.00
2018-09-15T22:42:54.364Z,53.60
2018-09-15T22:45:22.895Z,53.90
2018-09-15T22:47:50.532Z,54.40
2018-09-15T22:50:18.798Z,53.70
2018-09-15T22:52:46.434Z,54.20
2018-09-15T22:55:14.190Z,54.50
2018-09-15T22:57:41.660Z,54.30
2018-09-15T23:00:10.244Z,53.90
2018-09-15T23:02:37.819Z,53.60
2018-09-15T23:05:06.428Z,53.50
2018-09-15T23:07:34.062Z,52.80
2018-09-15T23:10:01.814Z,52.90
2018-09-15T23:12:32.254Z,52.70
2018-09-15T23:15:00.585Z,52.70
2018-09-15T23:17:28.531Z,53.00
2018-09-15T23:19:56.165Z,53.80
2018-09-15T23:22:23.771Z,53.40
2018-09-15T23:24:51.348Z,53.60
2018-09-15T23:27:19.032Z,53.50
2018-09-15T23:29:46.527Z,54.10
2018-09-15T23:37:09.409Z,54.20
2018-09-15T23:39:36.989Z,53.50
2018-09-15T23:42:04.540Z,54.00
2018-09-15T23:44:32.101Z,54.10
2018-09-15T23:46:59.563Z,54.50
2018-09-15T23:49:27.105Z,54.70
2018-09-15T23:51:55.483Z,54.70
2018-09-15T23:54:23.008Z,54.70
2018-09-15T23:56:50.539Z,53.80
2018-09-15T23:59:18.096Z,53.20
